KTWF/TWF METAR and TAF weather

Enter ICAO airport designator
Station Type Date Time Source
KTWF METAR 2022/11/27 07:53 UTC NOAA

KTWF 270753Z AUTO 21009KT 10SM CLR M03/M06 A3018 RMK AO2 SLP227 T10281061


Station Type Date Time Source
KTWF Decoded METAR 2022/11/27 07:53 UTC NOAA

JOSLIN FLD-MAGIC VALLEY REGL, ID, United States (KTWF) 42-29N 114-29W 1266M
Nov 27, 2022 - 02:53 AM EST / 2022.11.27 0753 UTC
Wind: from the SSW (210 degrees) at 10 MPH (9 KT):0
Visibility: 10 mile(s):0
Sky conditions: clear
Temperature: 27.0 F (-2.8 C)
Windchill: 17 F (-8 C):1
Dew Point: 21.0 F (-6.1 C)
Relative Humidity: 77%
Pressure (altimeter): 30.18 in. Hg (1022 hPa)
ob: KTWF 270753Z AUTO 21009KT 10SM CLR M03/M06 A3018 RMK AO2 SLP227 T10281061
cycle: 8

Station Type Date Time Source
KTWF TAF 2022/11/27 06:27 UTC NOAA

TAF KTWF 270524Z 2706/2806 21007KT P6SM SCT150
FM271200 19007KT P6SM BKN120
FM272100 26012KT P6SM BKN120
FM280300 22014G21KT P6SM OVC100

Example: see airport list